sensor_id;sensor_type;location;lat;lon;timestamp;pressure;altitude;pressure_sealevel;temperature;humidity
9229;BME280;4649;42.644;23.284;2023-07-29T00:02:06;92910.00;;;18.78;63.75
9229;BME280;4649;42.644;23.284;2023-07-29T00:04:33;92906.34;;;18.68;63.39
9229;BME280;4649;42.644;23.284;2023-07-29T00:07:00;92831.72;;;18.18;63.31
9229;BME280;4649;42.644;23.284;2023-07-29T00:14:41;92923.00;;;18.70;65.98
9229;BME280;4649;42.644;23.284;2023-07-29T00:17:08;92923.00;;;18.92;61.99
9229;BME280;4649;42.644;23.284;2023-07-29T00:19:35;92897.94;;;18.66;62.61
9229;BME280;4649;42.644;23.284;2023-07-29T00:22:03;92938.56;;;19.05;62.42
9229;BME280;4649;42.644;23.284;2023-07-29T00:24:31;92945.38;;;19.26;59.89
9229;BME280;4649;42.644;23.284;2023-07-29T00:26:58;92850.75;;;18.45;64.26
9229;BME280;4649;42.644;23.284;2023-07-29T00:29:26;92943.72;;;19.16;62.45
9229;BME280;4649;42.644;23.284;2023-07-29T00:31:54;92810.03;;;18.34;60.18
9229;BME280;4649;42.644;23.284;2023-07-29T00:34:21;92989.09;;;19.47;62.23
9229;BME280;4649;42.644;23.284;2023-07-29T00:36:48;92889.88;;;18.53;66.51
9229;BME280;4649;42.644;23.284;2023-07-29T00:39:15;92824.34;;;17.98;67.63
9229;BME280;4649;42.644;23.284;2023-07-29T00:41:42;93010.66;;;19.13;67.22
9229;BME280;4649;42.644;23.284;2023-07-29T00:44:09;92907.44;;;18.58;62.49
9229;BME280;4649;42.644;23.284;2023-07-29T00:46:38;92908.13;;;18.43;62.73
9229;BME280;4649;42.644;23.284;2023-07-29T00:49:08;92848.66;;;18.09;62.69
9229;BME280;4649;42.644;23.284;2023-07-29T00:54:11;92820.81;;;17.75;65.97
9229;BME280;4649;42.644;23.284;2023-07-29T00:57:10;92861.56;;;17.86;67.93
9229;BME280;4649;42.644;23.284;2023-07-29T01:02:18;92910.50;;;18.39;66.23
9229;BME280;4649;42.644;23.284;2023-07-29T01:04:52;92981.53;;;18.95;66.27
9229;BME280;4649;42.644;23.284;2023-07-29T01:07:23;92874.97;;;18.12;68.62
9229;BME280;4649;42.644;23.284;2023-07-29T01:09:58;92873.63;;;17.98;67.27
9229;BME280;4649;42.644;23.284;2023-07-29T01:12:36;92887.66;;;17.94;66.65
9229;BME280;4649;42.644;23.284;2023-07-29T01:15:11;92876.56;;;18.00;65.78
9229;BME280;4649;42.644;23.284;2023-07-29T01:17:54;92805.81;;;17.69;64.51
9229;BME280;4649;42.644;23.284;2023-07-29T01:20:29;92820.22;;;17.69;67.16
9229;BME280;4649;42.644;23.284;2023-07-29T01:22:59;92859.03;;;17.95;70.26
9229;BME280;4649;42.644;23.284;2023-07-29T01:25:29;92941.34;;;18.33;72.96
9229;BME280;4649;42.644;23.284;2023-07-29T01:27:58;92904.59;;;18.21;72.77
9229;BME280;4649;42.644;23.284;2023-07-29T01:30:33;92813.03;;;17.51;68.92
9229;BME280;4649;42.644;23.284;2023-07-29T01:33:17;92813.34;;;17.83;65.44
9229;BME280;4649;42.644;23.284;2023-07-29T01:35:50;92937.16;;;18.39;67.30
9229;BME280;4649;42.644;23.284;2023-07-29T01:38:22;92813.00;;;17.36;68.18
9229;BME280;4649;42.644;23.284;2023-07-29T01:40:53;92862.38;;;17.66;72.41
9229;BME280;4649;42.644;23.284;2023-07-29T01:43:20;92990.19;;;18.49;71.96
9229;BME280;4649;42.644;23.284;2023-07-29T01:45:49;92906.50;;;17.98;69.67
9229;BME280;4649;42.644;23.284;2023-07-29T01:48:16;92893.63;;;17.71;68.54
9229;BME280;4649;42.644;23.284;2023-07-29T01:50:44;92865.50;;;17.70;66.46
9229;BME280;4649;42.644;23.284;2023-07-29T01:53:18;92813.16;;;17.10;67.15
9229;BME280;4649;42.644;23.284;2023-07-29T01:56:21;92826.63;;;17.29;67.57
9229;BME280;4649;42.644;23.284;2023-07-29T01:59:02;92827.00;;;17.05;68.37
9229;BME280;4649;42.644;23.284;2023-07-29T02:01:49;92803.81;;;16.99;69.89
9229;BME280;4649;42.644;23.284;2023-07-29T02:04:38;92973.34;;;18.37;68.35
9229;BME280;4649;42.644;23.284;2023-07-29T02:07:12;92824.06;;;17.31;67.99
9229;BME280;4649;42.644;23.284;2023-07-29T02:09:39;92883.84;;;17.90;67.35
9229;BME280;4649;42.644;23.284;2023-07-29T02:12:08;92790.03;;;17.11;68.78
9229;BME280;4649;42.644;23.284;2023-07-29T02:14:35;92922.22;;;17.97;73.42
9229;BME280;4649;42.644;23.284;2023-07-29T02:17:02;92801.66;;;17.05;74.73
9229;BME280;4649;42.644;23.284;2023-07-29T02:19:29;92893.47;;;17.48;73.57
9229;BME280;4649;42.644;23.284;2023-07-29T02:21:57;92978.31;;;18.11;74.31
9229;BME280;4649;42.644;23.284;2023-07-29T02:24:24;92822.03;;;16.96;73.28
9229;BME280;4649;42.644;23.284;2023-07-29T02:26:51;92806.66;;;16.86;73.08
9229;BME280;4649;42.644;23.284;2023-07-29T02:29:19;92806.25;;;16.54;71.01
9229;BME280;4649;42.644;23.284;2023-07-29T02:31:46;92883.34;;;16.80;72.60
9229;BME280;4649;42.644;23.284;2023-07-29T02:34:14;92879.22;;;16.66;72.55
9229;BME280;4649;42.644;23.284;2023-07-29T02:36:43;92817.53;;;16.17;76.03
9229;BME280;4649;42.644;23.284;2023-07-29T02:39:11;92904.59;;;16.74;74.10
9229;BME280;4649;42.644;23.284;2023-07-29T02:41:38;92811.22;;;16.02;74.10
9229;BME280;4649;42.644;23.284;2023-07-29T02:44:05;92931.72;;;16.93;74.36
9229;BME280;4649;42.644;23.284;2023-07-29T02:46:33;92941.59;;;16.96;74.17
9229;BME280;4649;42.644;23.284;2023-07-29T02:49:02;92819.00;;;16.18;74.89
9229;BME280;4649;42.644;23.284;2023-07-29T02:51:29;92914.81;;;16.94;74.48
9229;BME280;4649;42.644;23.284;2023-07-29T02:53:56;92897.91;;;17.03;71.82
9229;BME280;4649;42.644;23.284;2023-07-29T02:56:24;92875.53;;;16.84;76.01
9229;BME280;4649;42.644;23.284;2023-07-29T02:58:53;92860.53;;;16.78;76.95
9229;BME280;4649;42.644;23.284;2023-07-29T03:01:20;92856.94;;;16.83;80.81
9229;BME280;4649;42.644;23.284;2023-07-29T03:03:49;92917.09;;;17.10;80.13
9229;BME280;4649;42.644;23.284;2023-07-29T03:06:18;92923.16;;;17.16;80.31
9229;BME280;4649;42.644;23.284;2023-07-29T03:08:45;92967.38;;;17.48;79.77
9229;BME280;4649;42.644;23.284;2023-07-29T03:11:14;92895.91;;;17.04;79.47
9229;BME280;4649;42.644;23.284;2023-07-29T03:13:50;92821.16;;;16.53;77.76
9229;BME280;4649;42.644;23.284;2023-07-29T03:16:22;92892.38;;;16.96;79.58
9229;BME280;4649;42.644;23.284;2023-07-29T03:21:57;92901.16;;;17.02;75.74
9229;BME280;4649;42.644;23.284;2023-07-29T03:24:24;92885.44;;;16.95;77.04
9229;BME280;4649;42.644;23.284;2023-07-29T03:26:51;92863.50;;;16.87;76.33
9229;BME280;4649;42.644;23.284;2023-07-29T03:29:18;92839.53;;;16.73;74.05
9229;BME280;4649;42.644;23.284;2023-07-29T03:31:45;92966.38;;;17.66;73.31
9229;BME280;4649;42.644;23.284;2023-07-29T03:34:12;93012.38;;;17.95;73.06
9229;BME280;4649;42.644;23.284;2023-07-29T03:36:39;92922.16;;;17.27;77.14
9229;BME280;4649;42.644;23.284;2023-07-29T03:39:11;92886.44;;;17.05;78.00
9229;BME280;4649;42.644;23.284;2023-07-29T03:42:20;93012.59;;;18.05;76.42
9229;BME280;4649;42.644;23.284;2023-07-29T03:45:10;93020.31;;;18.14;75.17
9229;BME280;4649;42.644;23.284;2023-07-29T03:47:57;93012.91;;;17.94;74.26
9229;BME280;4649;42.644;23.284;2023-07-29T03:50:41;92959.81;;;17.69;75.34
9229;BME280;4649;42.644;23.284;2023-07-29T03:53:25;92834.53;;;16.84;73.27
9229;BME280;4649;42.644;23.284;2023-07-29T03:55:57;92897.50;;;17.47;73.36
9229;BME280;4649;42.644;23.284;2023-07-29T03:58:24;92989.97;;;18.39;73.32
9229;BME280;4649;42.644;23.284;2023-07-29T04:00:51;92903.13;;;17.77;73.21
9229;BME280;4649;42.644;23.284;2023-07-29T04:03:19;92999.72;;;18.63;73.41
9229;BME280;4649;42.644;23.284;2023-07-29T04:06:02;92886.97;;;18.01;73.73
9229;BME280;4649;42.644;23.284;2023-07-29T04:08:35;92988.28;;;18.87;73.05
9229;BME280;4649;42.644;23.284;2023-07-29T04:11:19;92840.19;;;17.92;72.47
9229;BME280;4649;42.644;23.284;2023-07-29T04:13:45;92954.81;;;18.88;71.91
9229;BME280;4649;42.644;23.284;2023-07-29T04:16:13;92930.50;;;18.85;69.88
9229;BME280;4649;42.644;23.284;2023-07-29T04:18:40;92876.38;;;18.70;71.09
9229;BME280;4649;42.644;23.284;2023-07-29T04:22:06;92937.84;;;19.27;71.77
9229;BME280;4649;42.644;23.284;2023-07-29T04:24:34;92903.44;;;19.48;68.65
9229;BME280;4649;42.644;23.284;2023-07-29T08:43:26;92908.81;;;28.22;35.79
9229;BME280;4649;42.644;23.284;2023-07-29T16:42:36;92887.91;;;26.63;43.04
9229;BME280;4649;42.644;23.284;2023-07-29T16:45:04;92717.56;;;25.50;43.51
9229;BME280;4649;42.644;23.284;2023-07-29T16:47:30;92883.19;;;26.33;45.65
9229;BME280;4649;42.644;23.284;2023-07-29T16:49:57;92895.94;;;26.27;43.38
9229;BME280;4649;42.644;23.284;2023-07-29T16:54:58;92798.56;;;25.49;46.06
